Atlantic Beach, NC (28512)

2:01 PM EST on February 12, 2016 (GMT -0500)
Sound View | | Change Station
CLOSE
Current Station
Personal Weather Station
Location: Newport, NC
Elevation: 13 ft
Nearby Weather Stations

Elev 13 ft 34.73 °N, 76.86 °W | Updated 14 minutes ago

Rain
Rain
34.3 °F
Feels Like 32 °F
N
3.2
Wind Variable Wind from NNW

Today
High -- | Low -- °F
--% Chance of Precip.
Yesterday
High -- | Low -- °F
Precip. -- in
Pressure 30.03 in
Visibility 4.0 miles
Clouds Mostly Cloudy 700 ft
Overcast 1200 ft
Windchill 32 °F
Dew Point 31 °F
Humidity 87%
Rainfall 0.22 in
Snow Depth Not available.
6:56 AM 5:47 PM
Waxing Crescent, 22% visible
METAR KMRH 121858Z AUTO 04013G19KT 4SM RA BR BKN007 OVC012 02/01 A3003 RMK AO2 UPB35E36B45E46 SLP169 P0003 T00170006 TSNO
Pressure 30.03 in
Visibility 4.0 miles
Clouds Mostly Cloudy 700 ft
Overcast 1200 ft
Windchill 32 °F
Dew Point 31 °F
Humidity 87%
Rainfall 0.22 in
Snow Depth Not available.
6:56 AM 5:47 PM
Waxing Crescent, 22% visible
METAR KMRH 121858Z AUTO 04013G19KT 4SM RA BR BKN007 OVC012 02/01 A3003 RMK AO2 UPB35E36B45E46 SLP169 P0003 T00170006 TSNO

10-Day Weather Forecast

Almanac

Astronomy

Feb. 12, 2016 Rise Set
Actual Time
Civil Twilight
Nautical Twilight
Astronomical Twilight
Moon
Length of Visible Light
Length of Day
Tomorrow will be .
, % of the Moon is Illuminated

Today's Extremes

State Highs State Lows

Community

WunderPhotos

Upload Photos

1,892,374 photos uploaded!

WunderBlog® & News

Nearby

Air Quality

  Air Quality AQ Index Pollutant
Not available.

Snow Depth

Station Depth Elevation

Earthquake Activity

City Distance Mag. Time & Date
Minimum magnitude displayed is 2.5.

Coastal Water Temperatures

Place Temperature

Stations

Nearby Weather Stations

Station Location Temp. Windchill Dew Point Humidity Wind Precip. Elev Updated Type
                   

Watches & Warnings

There are currently no watches in effect.